Terminal Aerodrome Forecast
Issued by NWS

Home | Current Version | Previous Version | Text Only | Print | Product List | Glossary On
Versions: 1 2 3 4 5 6 7 8 9 10 11 12 13 14 15 16
000
FTAK31 PAFA 282336
TAFAFA
TAF
PAFA 282336Z 2900/3006 00000KT 5SM RA BR BKN024 BKN030 OVC045
     FM290100 25009KT 4SM -RA BR OVC015
     FM290400 26014G21KT P6SM OVC025
     FM291100 24008KT P6SM OVC025
     FM291600 24004KT 4SM BR OVC015
     FM291900 26004KT P6SM OVC015=

USA.gov is the U.S. government's official web portal to all federal, state and local government web resources and services.